Time;durP1;ratioP1;P1;durP2;ratioP2;P2;SDS_P1;SDS_P2;PMS_P1;PMS_P2;Temp;Humidity;BMP_temperature;BMP_pressure;BME280_temperature;BME280_humidity;BME280_pressure;Samples;Min_cycle;Max_cycle;Signal;HPM_P1;HPM_P2
2022/08/20 00:03:09;;;;;;;9.00;7.50;;;28.90;63.70;;;;;;221455;1262;22521;-59
2022/08/20 00:08:12;;;;;;;12.10;7.80;;;28.80;63.60;;;;;;221273;1262;24351;-60
2022/08/20 00:13:21;;;;;;;9.10;6.60;;;28.90;63.80;;;;;;221215;1265;24718;-61
2022/08/20 00:18:24;;;;;;;10.80;7.10;;;28.80;63.50;;;;;;220898;1262;22549;-62
2022/08/20 00:23:30;;;;;;;9.10;6.50;;;28.90;63.60;;;;;;220841;1265;25516;-60
2022/08/20 00:28:33;;;;;;;11.40;6.80;;;28.90;63.90;;;;;;221410;1262;22551;-60
2022/08/20 00:33:37;;;;;;;8.10;7.10;;;28.90;63.40;;;;;;221421;1262;22555;-61
2022/08/20 00:38:41;;;;;;;8.50;7.00;;;28.80;63.20;;;;;;221530;1262;25343;-58
2022/08/20 00:44:17;;;;;;;13.70;7.20;;;28.80;63.40;;;;;;221359;1262;24417;-59
2022/08/20 00:49:29;;;;;;;10.00;7.20;;;28.80;63.40;;;;;;221612;1262;25467;-58
2022/08/20 00:54:34;;;;;;;10.10;6.50;;;28.80;63.80;;;;;;221437;1262;25403;-59
2022/08/20 00:59:39;;;;;;;10.30;7.00;;;28.80;63.10;;;;;;221691;1262;26551;-58
2022/08/20 01:04:45;;;;;;;8.20;7.10;;;28.80;63.10;;;;;;221354;1261;26654;-59
2022/08/20 01:09:48;;;;;;;9.60;6.40;;;28.70;64.20;;;;;;221305;1262;26590;-60
2022/08/20 01:15:03;;;;;;;10.00;6.70;;;28.70;63.50;;;;;;221097;1262;24370;-60
2022/08/20 01:20:27;;;;;;;8.80;6.70;;;28.70;63.60;;;;;;221037;1265;22673;-61
2022/08/20 01:25:43;;;;;;;11.00;6.80;;;28.70;63.60;;;;;;220863;1265;24300;-60
2022/08/20 01:30:45;;;;;;;9.40;6.40;;;28.70;63.70;;;;;;220808;1265;23942;-60
2022/08/20 01:35:49;;;;;;;7.30;6.60;;;28.70;64.00;;;;;;221172;1265;24291;-63
2022/08/20 01:41:25;;;;;;;8.10;7.10;;;28.70;63.70;;;;;;221015;1262;22527;-59
2022/08/20 01:46:42;;;;;;;8.00;7.20;;;28.70;63.70;;;;;;221264;1265;22954;-59
2022/08/20 01:51:45;;;;;;;9.20;6.70;;;28.70;63.70;;;;;;221455;1262;22552;-60
2022/08/20 01:57:01;;;;;;;8.50;6.80;;;28.70;63.70;;;;;;221083;1262;22872;-60
2022/08/20 02:02:05;;;;;;;8.30;6.10;;;28.70;63.70;;;;;;221385;1262;22556;-56
2022/08/20 02:07:16;;;;;;;7.80;6.70;;;28.70;63.60;;;;;;221553;1265;24270;-60
2022/08/20 02:12:19;;;;;;;11.60;6.80;;;28.60;63.60;;;;;;221246;1265;25239;-62
2022/08/20 02:17:24;;;;;;;8.00;6.60;;;28.60;63.60;;;;;;221045;1262;24785;-60
2022/08/20 02:22:51;;;;;;;9.90;6.60;;;28.60;63.60;;;;;;221185;1263;23925;-60
2022/08/20 02:27:56;;;;;;;8.50;6.50;;;28.70;64.00;;;;;;221160;1262;22531;-60
2022/08/20 02:33:04;;;;;;;9.80;6.70;;;28.60;63.60;;;;;;221590;1265;22661;-60
2022/08/20 02:38:08;;;;;;;10.60;6.80;;;28.60;63.90;;;;;;221359;1262;24283;-60
2022/08/20 02:43:11;;;;;;;10.90;6.80;;;28.60;63.60;;;;;;221438;1262;25235;-60
2022/08/20 02:48:19;;;;;;;7.30;6.10;;;28.60;63.70;;;;;;221211;1262;22539;-60
2022/08/20 02:53:26;;;;;;;7.00;6.30;;;28.60;63.80;;;;;;221214;1262;26054;-60
2022/08/20 02:58:28;;;;;;;6.90;6.20;;;28.60;63.80;;;;;;220908;1265;24864;-59
2022/08/20 03:03:31;;;;;;;7.20;6.20;;;28.60;63.70;;;;;;221115;1262;23644;-60
2022/08/20 03:08:34;;;;;;;7.50;5.70;;;28.60;63.70;;;;;;221267;1263;22821;-59
2022/08/20 03:13:36;;;;;;;8.00;6.10;;;28.60;63.40;;;;;;220994;1265;22802;-59
2022/08/20 03:18:42;;;;;;;6.60;5.90;;;28.60;63.60;;;;;;220974;1267;24262;-60
2022/08/20 03:23:45;;;;;;;7.60;6.00;;;28.60;63.60;;;;;;221521;1266;26765;-60
2022/08/20 03:28:47;;;;;;;7.60;6.20;;;28.60;63.60;;;;;;221105;1263;22534;-61
2022/08/20 03:33:51;;;;;;;9.40;6.30;;;28.60;64.20;;;;;;221178;1265;24285;-60
2022/08/20 03:39:01;;;;;;;6.80;6.10;;;28.60;63.70;;;;;;220950;1265;22535;-62
2022/08/20 03:44:05;;;;;;;8.40;6.60;;;28.60;63.50;;;;;;220900;1265;25305;-60
2022/08/20 03:49:07;;;;;;;7.20;6.50;;;28.60;63.40;;;;;;221657;1265;25355;-60
2022/08/20 03:54:10;;;;;;;7.00;6.10;;;28.60;63.80;;;;;;221345;1265;26862;-60
2022/08/20 03:59:12;;;;;;;7.10;5.90;;;28.60;63.70;;;;;;221006;1265;22652;-60
2022/08/20 04:04:14;;;;;;;6.20;5.60;;;28.50;63.30;;;;;;221018;1265;25302;-60
2022/08/20 04:09:17;;;;;;;6.70;5.70;;;28.60;63.30;;;;;;221388;1262;26474;-59
2022/08/20 04:14:21;;;;;;;7.50;6.40;;;28.60;63.90;;;;;;221237;1267;25311;-60
2022/08/20 04:19:24;;;;;;;7.70;6.20;;;28.60;63.60;;;;;;220988;1265;25368;-60
2022/08/20 04:24:27;;;;;;;6.40;5.80;;;28.60;63.60;;;;;;221318;1265;24286;-63
2022/08/20 04:29:35;;;;;;;6.50;5.40;;;28.60;63.50;;;;;;221336;1261;22540;-61
2022/08/20 04:34:39;;;;;;;7.90;5.70;;;28.50;63.30;;;;;;221652;1262;22554;-59
2022/08/20 04:39:41;;;;;;;6.60;5.80;;;28.50;63.40;;;;;;221352;1264;26500;-59
2022/08/20 04:44:43;;;;;;;6.40;5.80;;;28.50;63.20;;;;;;221333;1264;22729;-59
2022/08/20 04:49:46;;;;;;;6.70;5.90;;;28.50;63.10;;;;;;221519;1264;22601;-59
2022/08/20 04:54:48;;;;;;;6.20;5.60;;;28.50;63.20;;;;;;220446;1262;1410404;-57
2022/08/20 04:59:52;;;;;;;6.90;6.20;;;28.50;63.10;;;;;;221420;1261;22528;-60
2022/08/20 05:05:01;;;;;;;7.00;6.30;;;28.50;63.00;;;;;;221379;1262;22735;-60
2022/08/20 05:10:09;;;;;;;6.50;5.80;;;28.60;63.10;;;;;;221391;1262;24295;-60
2022/08/20 05:15:16;;;;;;;7.00;6.30;;;28.50;63.00;;;;;;221382;1262;22558;-59
2022/08/20 05:20:18;;;;;;;6.80;6.00;;;28.50;63.10;;;;;;221083;1265;22682;-62
2022/08/20 05:25:22;;;;;;;6.80;6.10;;;28.50;63.10;;;;;;221202;1265;24352;-59
2022/08/20 05:30:24;;;;;;;6.50;5.90;;;28.50;63.10;;;;;;221329;1265;22693;-60
2022/08/20 05:35:27;;;;;;;7.00;6.30;;;28.50;63.10;;;;;;221251;1265;24283;-62
2022/08/20 05:40:30;;;;;;;6.30;5.70;;;28.50;63.10;;;;;;221056;1267;24073;-59
2022/08/20 05:45:36;;;;;;;6.80;5.80;;;28.50;63.40;;;;;;221176;1265;24286;-61
2022/08/20 05:50:41;;;;;;;6.90;6.20;;;28.50;63.20;;;;;;221028;1265;25245;-60
2022/08/20 05:55:44;;;;;;;7.00;6.30;;;28.50;63.20;;;;;;221384;1265;22689;-61
2022/08/20 06:00:47;;;;;;;8.00;6.10;;;28.50;63.00;;;;;;220971;1265;24283;-60
2022/08/20 06:05:50;;;;;;;6.30;5.70;;;28.50;63.10;;;;;;221269;1265;24527;-57
2022/08/20 06:10:52;;;;;;;7.50;6.70;;;28.50;63.10;;;;;;221627;1264;24405;-62
2022/08/20 06:15:56;;;;;;;6.70;6.00;;;28.50;63.00;;;;;;221392;1262;25364;-60
2022/08/20 06:20:59;;;;;;;7.90;6.70;;;28.50;63.10;;;;;;221471;1262;25301;-60
2022/08/20 06:26:07;;;;;;;7.50;6.80;;;28.50;63.40;;;;;;221479;1262;25334;-61
2022/08/20 06:31:10;;;;;;;7.40;6.30;;;28.50;63.10;;;;;;221530;1261;22557;-60
2022/08/20 06:36:12;;;;;;;8.40;7.60;;;28.50;63.20;;;;;;221231;1262;24361;-60
2022/08/20 06:41:20;;;;;;;7.50;6.70;;;28.50;63.10;;;;;;221462;1262;25232;-61
2022/08/20 06:46:23;;;;;;;7.90;7.10;;;28.50;63.10;;;;;;221644;1265;22553;-61
2022/08/20 06:51:25;;;;;;;7.40;6.70;;;28.50;63.20;;;;;;221419;1265;22538;-63
2022/08/20 06:56:28;;;;;;;9.00;7.90;;;28.50;63.10;;;;;;221345;1265;23973;-61
2022/08/20 07:01:30;;;;;;;8.40;7.60;;;28.60;63.50;;;;;;221043;1265;22633;-59
2022/08/20 07:06:36;;;;;;;8.40;7.60;;;28.50;63.10;;;;;;221332;1265;24398;-62
2022/08/20 07:11:47;;;;;;;8.30;7.50;;;28.50;63.10;;;;;;221462;1264;22572;-61
2022/08/20 07:17:05;;;;;;;8.10;7.30;;;28.50;63.20;;;;;;221410;1261;25358;-59
2022/08/20 07:22:14;;;;;;;8.30;7.50;;;28.50;62.70;;;;;;221446;1262;25274;-60
2022/08/20 07:27:25;;;;;;;8.60;7.80;;;28.50;63.10;;;;;;221323;1262;25235;-64
2022/08/20 07:32:37;;;;;;;8.40;7.60;;;28.50;63.00;;;;;;221645;1262;24289;-63
2022/08/20 07:37:50;;;;;;;9.00;8.10;;;28.50;62.90;;;;;;221532;1262;24436;-60
2022/08/20 07:42:59;;;;;;;8.50;7.60;;;28.60;63.00;;;;;;221291;1262;22616;-61
2022/08/20 07:48:08;;;;;;;10.10;8.00;;;28.60;63.10;;;;;;221479;1262;22537;-61
2022/08/20 07:53:11;;;;;;;9.60;8.70;;;28.60;63.00;;;;;;221467;1262;22554;-59
2022/08/20 07:58:18;;;;;;;9.40;8.40;;;28.60;63.10;;;;;;221249;1262;24203;-60
2022/08/20 08:03:25;;;;;;;9.30;8.40;;;28.60;63.10;;;;;;221608;1264;22559;-60
2022/08/20 08:08:48;;;;;;;9.00;8.10;;;28.70;63.20;;;;;;221145;1261;24354;-60
2022/08/20 08:13:53;;;;;;;8.90;8.10;;;28.60;63.00;;;;;;221408;1261;24182;-60
2022/08/20 08:18:57;;;;;;;9.50;8.60;;;28.60;63.00;;;;;;221448;1262;22572;-60
2022/08/20 08:23:59;;;;;;;9.90;8.60;;;28.60;63.10;;;;;;221221;1265;22558;-59
2022/08/20 08:29:06;;;;;;;10.50;9.60;;;28.60;63.10;;;;;;221089;1265;26182;-60
2022/08/20 08:34:12;;;;;;;9.70;8.70;;;28.70;63.10;;;;;;221226;1262;22531;-60
2022/08/20 08:39:15;;;;;;;9.90;9.00;;;28.70;63.00;;;;;;221089;1262;25316;-60
2022/08/20 08:44:38;;;;;;;10.50;9.50;;;28.70;63.30;;;;;;221115;1262;24405;-60
2022/08/20 08:49:41;;;;;;;10.00;9.10;;;28.70;63.00;;;;;;221024;1265;22547;-60
2022/08/20 08:54:49;;;;;;;9.20;8.30;;;28.80;63.10;;;;;;221387;1265;23658;-60
2022/08/20 08:59:58;;;;;;;10.40;9.40;;;28.80;63.10;;;;;;221436;1262;25247;-61
2022/08/20 09:05:19;;;;;;;11.00;10.00;;;28.80;63.10;;;;;;221464;1261;22569;-62
2022/08/20 09:10:22;;;;;;;12.90;10.90;;;28.80;63.10;;;;;;221411;1261;24280;-61
2022/08/20 09:15:25;;;;;;;12.50;11.20;;;28.90;63.30;;;;;;221675;1261;25248;-60
2022/08/20 09:20:28;;;;;;;14.20;12.80;;;28.90;63.40;;;;;;221295;1265;22633;-63
2022/08/20 09:25:31;;;;;;;14.50;13.00;;;28.80;63.50;;;;;;220958;1265;24288;-60
2022/08/20 09:30:36;;;;;;;17.60;15.00;;;28.80;63.70;;;;;;221106;1262;23986;-60
2022/08/20 09:35:39;;;;;;;21.20;18.00;;;28.90;64.20;;;;;;221052;1262;24376;-58
2022/08/20 09:40:43;;;;;;;19.30;17.40;;;29.00;63.60;;;;;;221145;1265;24302;-60
2022/08/20 09:45:46;;;;;;;19.20;16.60;;;28.90;64.50;;;;;;221375;1262;22722;-59
2022/08/20 09:50:53;;;;;;;21.70;19.60;;;28.90;64.00;;;;;;221063;1265;22576;-58
2022/08/20 09:55:58;;;;;;;21.40;19.20;;;29.00;64.20;;;;;;221065;1262;25302;-59
2022/08/20 10:01:07;;;;;;;23.50;19.70;;;29.00;64.90;;;;;;221598;1261;23295;-59
2022/08/20 10:06:20;;;;;;;22.30;19.90;;;29.00;64.70;;;;;;221309;1261;25343;-63
2022/08/20 10:11:23;;;;;;;21.20;18.90;;;28.90;65.10;;;;;;221667;1261;25326;-57
2022/08/20 10:16:26;;;;;;;23.30;20.40;;;29.00;64.60;;;;;;221454;1262;22538;-59
2022/08/20 10:21:32;;;;;;;24.60;20.00;;;29.00;64.50;;;;;;221432;1262;25473;-59
2022/08/20 10:26:43;;;;;;;22.40;20.10;;;29.00;64.80;;;;;;221289;1261;24305;-59
2022/08/20 10:31:46;;;;;;;28.50;20.60;;;29.00;64.50;;;;;;221435;1261;24206;-60
2022/08/20 10:36:50;;;;;;;25.70;21.40;;;29.00;64.50;;;;;;221353;1262;25391;-57
2022/08/20 10:41:59;;;;;;;21.90;19.50;;;29.00;65.00;;;;;;221339;1262;24270;-61
2022/08/20 10:47:32;;;;;;;23.60;20.70;;;29.00;64.40;;;;;;221561;1262;24292;-61
2022/08/20 10:52:34;;;;;;;22.40;20.00;;;29.00;64.50;;;;;;220904;1265;22529;-59
2022/08/20 10:57:41;;;;;;;20.10;17.90;;;29.00;64.50;;;;;;220971;1262;23580;-50
2022/08/20 11:02:47;;;;;;;21.10;18.80;;;29.00;64.50;;;;;;221014;1262;25443;-50
2022/08/20 11:07:51;;;;;;;29.90;19.60;;;29.00;64.80;;;;;;221167;1265;24266;-49
2022/08/20 11:13:02;;;;;;;;;;;29.00;65.10;;;;;;221246;1262;25341;-45
2022/08/20 11:18:05;;;;;;;22.30;19.50;;;28.90;65.20;;;;;;221256;1265;22553;-47
2022/08/20 11:23:07;;;;;;;23.30;20.40;;;28.90;65.00;;;;;;221460;1262;22531;-47
2022/08/20 11:28:13;;;;;;;23.20;20.80;;;28.90;65.30;;;;;;221257;1263;22695;-49
2022/08/20 11:33:16;;;;;;;26.00;22.60;;;28.90;65.00;;;;;;221613;1262;22702;-52
2022/08/20 11:38:19;;;;;;;24.50;20.30;;;28.80;65.70;;;;;;221557;1261;24398;-47
2022/08/20 11:43:34;;;;;;;24.20;21.50;;;28.80;65.00;;;;;;221538;1261;22540;-49
2022/08/20 11:48:38;;;;;;;25.00;22.30;;;28.80;65.00;;;;;;221468;1262;24537;-50
2022/08/20 11:53:41;;;;;;;29.40;22.40;;;28.80;66.00;;;;;;221443;1262;22549;-51
2022/08/20 11:58:43;;;;;;;26.20;22.10;;;28.80;65.30;;;;;;221560;1262;23908;-49
2022/08/20 12:03:50;;;;;;;24.50;21.70;;;28.80;65.60;;;;;;221421;1262;24234;-48
2022/08/20 12:08:53;;;;;;;25.20;21.30;;;28.90;65.20;;;;;;221423;1262;22545;-50
2022/08/20 12:13:56;;;;;;;24.80;20.30;;;29.00;64.80;;;;;;221210;1262;24354;-49
2022/08/20 12:18:58;;;;;;;25.00;20.40;;;29.00;64.80;;;;;;221332;1262;22535;-53
2022/08/20 12:24:01;;;;;;;25.30;20.60;;;29.00;64.40;;;;;;221442;1262;22564;-50
2022/08/20 12:29:03;;;;;;;24.80;20.60;;;29.00;64.40;;;;;;221316;1261;24254;-52
2022/08/20 12:34:09;;;;;;;25.40;20.00;;;29.10;63.10;;;;;;221517;1262;22540;-50
2022/08/20 12:39:11;;;;;;;23.10;18.60;;;29.10;64.00;;;;;;221289;1262;23052;-49
2022/08/20 12:44:15;;;;;;;21.40;19.10;;;29.10;63.50;;;;;;221347;1262;23322;-48
2022/08/20 12:49:23;;;;;;;24.00;18.90;;;29.10;63.50;;;;;;221045;1262;22774;-51
2022/08/20 12:54:34;;;;;;;21.90;18.10;;;29.20;63.70;;;;;;221403;1262;22548;-55
2022/08/20 12:59:39;;;;;;;21.10;17.60;;;29.30;63.60;;;;;;221072;1262;22605;-50
2022/08/20 13:04:41;;;;;;;20.80;18.60;;;29.40;63.40;;;;;;221116;1262;24509;-47
2022/08/20 13:09:44;;;;;;;21.60;17.80;;;29.50;63.20;;;;;;220907;1262;22582;-58
2022/08/20 13:14:46;;;;;;;20.90;17.80;;;29.50;63.00;;;;;;223628;1262;24388;-52
2022/08/20 13:19:48;;;;;;;21.70;17.70;;;29.50;63.60;;;;;;221263;1262;24386;-48
2022/08/20 13:24:53;;;;;;;21.90;17.20;;;29.50;63.00;;;;;;221358;1261;25257;-51
2022/08/20 13:29:56;;;;;;;19.90;17.30;;;29.50;62.80;;;;;;221699;1262;22578;-50
2022/08/20 13:35:01;;;;;;;19.90;17.40;;;29.60;62.70;;;;;;221484;1261;22543;-48
2022/08/20 13:40:06;;;;;;;19.90;17.50;;;29.60;62.80;;;;;;221653;1262;25420;-50
2022/08/20 13:45:09;;;;;;;20.00;17.90;;;29.60;62.60;;;;;;221073;1263;24233;-51
2022/08/20 13:50:16;;;;;;;20.00;16.80;;;29.60;62.50;;;;;;221702;1262;23142;-49
2022/08/20 13:55:20;;;;;;;20.50;16.80;;;29.60;62.50;;;;;;221472;1261;22814;-53
2022/08/20 14:00:29;;;;;;;21.40;18.20;;;29.60;62.50;;;;;;221397;1261;24289;-51
2022/08/20 14:05:34;;;;;;;20.50;17.40;;;29.60;62.50;;;;;;221472;1262;22564;-51
2022/08/20 14:10:37;;;;;;;19.60;17.50;;;29.60;62.50;;;;;;221411;1261;25352;-52
2022/08/20 14:15:40;;;;;;;19.50;16.40;;;29.60;62.80;;;;;;221488;1261;22976;-49
2022/08/20 14:20:43;;;;;;;18.80;16.80;;;29.60;62.40;;;;;;221251;1262;22710;-51
2022/08/20 14:25:48;;;;;;;20.90;17.50;;;29.60;62.50;;;;;;221286;1262;24302;-46
2022/08/20 14:30:51;;;;;;;21.00;17.00;;;29.50;62.30;;;;;;221503;1262;22826;-51
2022/08/20 14:35:55;;;;;;;19.20;17.30;;;29.50;62.40;;;;;;221326;1261;24283;-50
2022/08/20 14:40:57;;;;;;;19.60;17.50;;;29.50;62.50;;;;;;221206;1262;22557;-51
2022/08/20 14:45:59;;;;;;;18.30;16.40;;;29.50;62.60;;;;;;221363;1262;22641;-47
2022/08/20 14:51:02;;;;;;;19.00;17.10;;;29.50;62.60;;;;;;221442;1262;24298;-50
2022/08/20 14:56:05;;;;;;;18.50;16.60;;;29.50;62.70;;;;;;221212;1262;22570;-49
2022/08/20 15:01:07;;;;;;;18.60;16.70;;;29.50;62.80;;;;;;221027;1262;22546;-51
2022/08/20 15:06:09;;;;;;;19.70;15.80;;;29.40;62.80;;;;;;220738;1265;22704;-49
2022/08/20 15:11:23;;;;;;;17.80;15.60;;;29.50;62.90;;;;;;221260;1265;25361;-48
2022/08/20 15:16:35;;;;;;;18.40;16.60;;;29.40;62.70;;;;;;220962;1265;22551;-47
2022/08/20 15:21:37;;;;;;;18.20;16.40;;;29.50;63.80;;;;;;221330;1265;22629;-52
2022/08/20 15:26:47;;;;;;;19.10;17.10;;;29.40;63.00;;;;;;221380;1265;25372;-52
2022/08/20 15:31:50;;;;;;;17.70;16.00;;;29.30;63.10;;;;;;221100;1262;24077;-48
2022/08/20 15:36:52;;;;;;;20.30;17.00;;;29.30;63.30;;;;;;221413;1262;22528;-50
2022/08/20 15:41:57;;;;;;;17.50;15.80;;;29.30;63.50;;;;;;221142;1262;22528;-49
2022/08/20 15:47:34;;;;;;;18.50;16.60;;;29.20;63.50;;;;;;221641;1262;22602;-50
2022/08/20 15:52:41;;;;;;;18.90;16.20;;;29.20;63.80;;;;;;221340;1262;26474;-48
2022/08/20 15:58:19;;;;;;;18.10;15.60;;;29.20;64.60;;;;;;221235;1262;24208;-48
2022/08/20 16:03:49;;;;;;;22.30;14.20;;;29.10;64.20;;;;;;221533;1262;26486;-51
2022/08/20 16:09:11;;;;;;;15.40;13.60;;;29.10;65.10;;;;;;221342;1262;24352;-49
2022/08/20 16:14:23;;;;;;;18.00;12.50;;;29.10;64.70;;;;;;221227;1262;23902;-48
2022/08/20 16:19:33;;;;;;;16.00;12.60;;;29.10;64.50;;;;;;221458;1265;24328;-49
2022/08/20 16:24:37;;;;;;;16.60;11.00;;;29.00;64.20;;;;;;221345;1265;22837;-50
2022/08/20 16:29:57;;;;;;;14.10;10.10;;;29.00;64.10;;;;;;221166;1265;23968;-47
2022/08/20 16:35:21;;;;;;;12.10;9.20;;;29.00;64.50;;;;;;221005;1265;22729;-51
2022/08/20 16:40:39;;;;;;;9.70;8.60;;;28.90;64.30;;;;;;221229;1264;22528;-51
2022/08/20 16:45:58;;;;;;;9.60;7.40;;;28.90;64.40;;;;;;221041;1265;24192;-48
2022/08/20 16:51:07;;;;;;;10.20;6.50;;;28.90;64.50;;;;;;221148;1262;26695;-49
2022/08/20 16:56:12;;;;;;;8.40;6.40;;;28.80;64.60;;;;;;220251;1265;1273070;-50
2022/08/20 17:01:25;;;;;;;8.40;5.30;;;28.80;64.60;;;;;;220861;1262;22541;-54
2022/08/20 17:06:31;;;;;;;;;;;28.70;64.60;;;;;;221466;1262;24318;-50
2022/08/20 17:11:43;;;;;;;6.20;5.20;;;28.70;64.70;;;;;;221288;1262;24471;-52
2022/08/20 17:16:51;;;;;;;8.30;4.80;;;28.70;64.70;;;;;;221233;1262;24261;-48
2022/08/20 17:21:54;;;;;;;6.10;4.00;;;28.70;64.70;;;;;;221459;1262;22688;-50
2022/08/20 17:27:00;;;;;;;8.00;4.20;;;28.70;64.70;;;;;;221636;1262;22552;-52
2022/08/20 17:32:27;;;;;;;6.00;4.40;;;28.70;64.60;;;;;;221407;1262;22556;-51
2022/08/20 17:37:35;;;;;;;;;;;28.60;64.80;;;;;;221446;1262;23906;-49
2022/08/20 17:43:00;;;;;;;6.60;4.30;;;28.50;65.30;;;;;;221476;1262;22525;-50
2022/08/20 17:48:14;;;;;;;7.40;4.10;;;28.40;65.40;;;;;;221318;1264;26701;-48
2022/08/20 17:53:23;;;;;;;8.10;4.60;;;28.30;65.60;;;;;;221299;1265;24072;-52
2022/08/20 17:58:37;;;;;;;7.10;4.40;;;28.30;65.90;;;;;;220925;1265;22537;-48
2022/08/20 18:03:39;;;;;;;5.60;4.30;;;28.30;65.50;;;;;;221277;1262;22629;-50
2022/08/20 18:09:00;;;;;;;7.00;3.80;;;28.30;65.50;;;;;;221117;1262;24303;-50
2022/08/20 18:14:16;;;;;;;4.90;4.20;;;28.30;65.40;;;;;;221257;1262;24316;-52
2022/08/20 18:19:28;;;;;;;6.40;4.60;;;28.30;65.40;;;;;;221227;1261;22538;-50
2022/08/20 18:24:42;;;;;;;7.50;4.40;;;28.20;65.30;;;;;;221582;1262;22694;-50
2022/08/20 18:29:52;;;;;;;6.30;4.50;;;28.20;65.20;;;;;;221377;1262;22519;-50
2022/08/20 18:35:10;;;;;;;6.50;4.20;;;28.20;65.00;;;;;;221137;1262;25244;-51
2022/08/20 18:40:32;;;;;;;6.60;4.40;;;28.20;64.90;;;;;;221175;1265;24300;-49
2022/08/20 18:45:36;;;;;;;7.30;4.50;;;28.20;64.80;;;;;;221272;1265;22692;-49
2022/08/20 18:50:38;;;;;;;6.10;4.10;;;28.20;64.70;;;;;;221190;1265;25397;-52
2022/08/20 18:56:03;;;;;;;6.20;4.40;;;28.20;65.00;;;;;;221025;1265;26937;-51
2022/08/20 19:01:12;;;;;;;6.20;4.40;;;28.20;64.60;;;;;;221333;1265;22553;-49
2022/08/20 19:06:14;;;;;;;5.50;4.30;;;28.20;64.60;;;;;;221211;1265;22569;-52
2022/08/20 19:11:55;;;;;;;6.10;4.60;;;28.20;64.70;;;;;;221205;1262;22587;-51
2022/08/20 19:17:24;;;;;;;7.20;4.80;;;28.20;64.60;;;;;;221479;1262;25235;-47
2022/08/20 19:22:29;;;;;;;6.90;4.90;;;28.10;65.20;;;;;;221568;1262;24283;-50
2022/08/20 19:27:31;;;;;;;6.50;5.30;;;28.10;64.70;;;;;;221312;1261;22547;-51
2022/08/20 19:32:34;;;;;;;10.60;4.80;;;28.10;64.80;;;;;;221280;1262;25271;-48
2022/08/20 19:37:44;;;;;;;5.90;4.60;;;28.10;64.80;;;;;;220980;1262;22525;-49
2022/08/20 19:42:55;;;;;;;5.80;4.70;;;28.10;64.70;;;;;;221190;1262;24379;-47
2022/08/20 19:48:18;;;;;;;6.60;4.90;;;28.20;64.80;;;;;;221509;1262;26467;-48
2022/08/20 19:53:34;;;;;;;6.40;4.60;;;28.20;64.20;;;;;;221327;1262;28996;-52
2022/08/20 19:58:38;;;;;;;5.40;4.60;;;28.20;64.80;;;;;;221598;1261;22682;-51
2022/08/20 20:03:58;;;;;;;5.50;4.90;;;28.20;64.80;;;;;;221407;1262;25386;-47
2022/08/20 20:09:06;;;;;;;;;;;28.20;65.20;;;;;;221248;1262;22675;-49
2022/08/20 20:14:12;;;;;;;5.20;4.70;;;28.20;65.00;;;;;;221345;1262;22570;-50
2022/08/20 20:19:15;;;;;;;6.30;4.70;;;28.20;65.00;;;;;;221407;1262;25657;-53
2022/08/20 20:24:40;;;;;;;6.60;5.20;;;28.10;65.00;;;;;;221651;1262;24205;-48
2022/08/20 20:29:43;;;;;;;6.90;5.30;;;28.10;65.10;;;;;;221415;1262;22720;-48
2022/08/20 20:34:58;;;;;;;5.70;5.10;;;28.10;65.20;;;;;;221008;1262;25226;-49
2022/08/20 20:40:08;;;;;;;7.30;5.70;;;28.10;65.30;;;;;;221442;1262;26488;-52
2022/08/20 20:45:30;;;;;;;8.00;6.10;;;28.10;65.30;;;;;;221515;1263;22588;-51
2022/08/20 20:50:39;;;;;;;6.70;5.90;;;28.00;65.50;;;;;;221459;1262;22596;-49
2022/08/20 20:55:54;;;;;;;7.40;6.30;;;28.00;65.50;;;;;;221652;1263;24205;-49
2022/08/20 21:00:57;;;;;;;9.00;6.30;;;28.00;65.60;;;;;;221435;1262;22537;-53
2022/08/20 21:05:59;;;;;;;7.20;6.20;;;28.00;65.60;;;;;;221046;1262;24279;-51
2022/08/20 21:11:01;;;;;;;8.60;6.00;;;28.00;65.50;;;;;;221749;1262;24389;-53
2022/08/20 21:16:06;;;;;;;9.10;6.70;;;28.00;65.70;;;;;;221484;1262;24239;-50
2022/08/20 21:21:14;;;;;;;7.70;6.20;;;27.90;65.70;;;;;;221412;1262;22704;-49
2022/08/20 21:26:50;;;;;;;7.40;6.10;;;27.80;65.70;;;;;;221484;1262;25308;-49
2022/08/20 21:32:00;;;;;;;7.30;6.60;;;27.80;65.90;;;;;;221371;1265;25242;-51
2022/08/20 21:37:19;;;;;;;7.00;5.70;;;27.80;65.90;;;;;;221115;1262;25468;-52
2022/08/20 21:42:23;;;;;;;7.30;5.60;;;27.80;66.30;;;;;;221541;1262;25407;-53
2022/08/20 21:47:32;;;;;;;7.70;5.80;;;27.70;65.90;;;;;;221474;1262;23746;-52
2022/08/20 21:52:34;;;;;;;6.80;6.00;;;27.80;65.90;;;;;;221474;1264;24250;-50
2022/08/20 21:57:41;;;;;;;7.00;4.90;;;27.70;65.90;;;;;;221563;1262;22935;-49
2022/08/20 22:02:44;;;;;;;6.50;5.10;;;27.70;65.80;;;;;;221384;1262;22700;-49
2022/08/20 22:07:48;;;;;;;5.00;4.40;;;27.60;65.80;;;;;;221140;1265;22589;-55
2022/08/20 22:12:54;;;;;;;6.60;4.50;;;27.60;66.40;;;;;;221259;1265;23154;-50
2022/08/20 22:17:57;;;;;;;4.90;4.20;;;27.60;65.80;;;;;;221241;1262;25352;-47
2022/08/20 22:23:05;;;;;;;5.50;4.60;;;27.60;66.00;;;;;;221409;1265;22706;-52
2022/08/20 22:28:12;;;;;;;4.70;4.20;;;27.50;65.70;;;;;;221158;1266;22573;-49
2022/08/20 22:33:23;;;;;;;5.10;3.70;;;27.50;66.00;;;;;;221521;1265;24237;-48
2022/08/20 22:38:28;;;;;;;5.30;4.00;;;27.50;65.80;;;;;;221249;1262;23927;-48
2022/08/20 22:43:43;;;;;;;6.90;4.10;;;27.50;66.00;;;;;;221351;1265;24303;-48
2022/08/20 22:49:03;;;;;;;4.50;3.80;;;27.40;65.60;;;;;;221242;1265;23945;-47
2022/08/20 22:54:17;;;;;;;4.30;3.70;;;27.50;65.90;;;;;;221137;1262;22681;-50
2022/08/20 22:59:27;;;;;;;5.40;3.70;;;27.50;65.50;;;;;;221070;1262;25438;-49
2022/08/20 23:04:51;;;;;;;5.50;3.70;;;27.50;65.80;;;;;;221092;1262;22531;-51
2022/08/20 23:10:03;;;;;;;4.30;3.90;;;27.50;65.60;;;;;;221473;1265;22806;-47
2022/08/20 23:15:20;;;;;;;4.20;3.80;;;27.50;65.60;;;;;;221020;1262;24523;-47
2022/08/20 23:20:30;;;;;;;4.10;3.70;;;27.40;65.50;;;;;;221084;1265;22672;-50
2022/08/20 23:25:34;;;;;;;5.50;3.80;;;27.40;65.60;;;;;;221042;1265;24297;-47
2022/08/20 23:30:36;;;;;;;4.50;3.80;;;27.40;65.70;;;;;;221424;1262;22528;-48
2022/08/20 23:35:39;;;;;;;5.70;4.00;;;27.30;65.60;;;;;;221244;1262;22720;-47
2022/08/20 23:40:42;;;;;;;6.60;4.50;;;27.30;65.60;;;;;;221331;1262;25350;-48
2022/08/20 23:45:45;;;;;;;5.00;4.10;;;27.30;66.00;;;;;;221397;1265;25235;-49
2022/08/20 23:50:47;;;;;;;4.00;3.60;;;27.30;65.60;;;;;;221424;1262;25250;-48
2022/08/20 23:55:49;;;;;;;6.90;4.40;;;27.30;65.70;;;;;;221005;1264;24321;-52
